sensor_id;sensor_type;location;lat;lon;timestamp;P1;durP1;ratioP1;P2;durP2;ratioP2
28216;SDS011;15493;56.858;24.340;2023-06-10T00:02:14;1.17;;;0.80;;
28216;SDS011;15493;56.858;24.340;2023-06-10T00:04:43;0.80;;;0.80;;
28216;SDS011;15493;56.858;24.340;2023-06-10T00:07:10;1.13;;;0.93;;
28216;SDS011;15493;56.858;24.340;2023-06-10T00:09:37;1.13;;;1.02;;
28216;SDS011;15493;56.858;24.340;2023-06-10T00:12:05;2.25;;;0.73;;
28216;SDS011;15493;56.858;24.340;2023-06-10T00:14:43;0.80;;;0.80;;
28216;SDS011;15493;56.858;24.340;2023-06-10T00:17:10;2.13;;;0.63;;
28216;SDS011;15493;56.858;24.340;2023-06-10T00:19:37;0.57;;;0.50;;
28216;SDS011;15493;56.858;24.340;2023-06-10T00:22:08;2.47;;;0.80;;
28216;SDS011;15493;56.858;24.340;2023-06-10T00:24:37;3.50;;;1.05;;
28216;SDS011;15493;56.858;24.340;2023-06-10T00:27:05;1.05;;;0.90;;
28216;SDS011;15493;56.858;24.340;2023-06-10T00:29:33;1.10;;;0.60;;
28216;SDS011;15493;56.858;24.340;2023-06-10T00:32:01;1.60;;;0.82;;
28216;SDS011;15493;56.858;24.340;2023-06-10T00:34:28;0.98;;;0.93;;
28216;SDS011;15493;56.858;24.340;2023-06-10T00:36:55;1.00;;;0.70;;
28216;SDS011;15493;56.858;24.340;2023-06-10T00:39:23;1.13;;;1.02;;
28216;SDS011;15493;56.858;24.340;2023-06-10T00:41:50;1.08;;;0.82;;
28216;SDS011;15493;56.858;24.340;2023-06-10T00:44:17;2.88;;;1.00;;
28216;SDS011;15493;56.858;24.340;2023-06-10T00:46:44;0.80;;;0.80;;
28216;SDS011;15493;56.858;24.340;2023-06-10T00:49:12;0.98;;;0.98;;
28216;SDS011;15493;56.858;24.340;2023-06-10T00:51:39;7.05;;;0.70;;
28216;SDS011;15493;56.858;24.340;2023-06-10T00:54:07;6.10;;;1.75;;
28216;SDS011;15493;56.858;24.340;2023-06-10T00:56:34;1.48;;;0.80;;
28216;SDS011;15493;56.858;24.340;2023-06-10T00:59:02;2.70;;;0.80;;
28216;SDS011;15493;56.858;24.340;2023-06-10T01:01:29;2.10;;;0.82;;
28216;SDS011;15493;56.858;24.340;2023-06-10T01:03:56;2.20;;;0.77;;
28216;SDS011;15493;56.858;24.340;2023-06-10T01:09:17;2.72;;;0.75;;
28216;SDS011;15493;56.858;24.340;2023-06-10T01:11:52;2.10;;;0.82;;
28216;SDS011;15493;56.858;24.340;2023-06-10T01:14:21;2.05;;;1.17;;
28216;SDS011;15493;56.858;24.340;2023-06-10T01:16:49;7.95;;;2.35;;
28216;SDS011;15493;56.858;24.340;2023-06-10T01:19:18;1.05;;;0.93;;
28216;SDS011;15493;56.858;24.340;2023-06-10T01:21:46;0.73;;;0.70;;
28216;SDS011;15493;56.858;24.340;2023-06-10T01:24:15;1.08;;;0.80;;
28216;SDS011;15493;56.858;24.340;2023-06-10T01:26:44;3.25;;;0.95;;
28216;SDS011;15493;56.858;24.340;2023-06-10T01:29:15;5.00;;;0.80;;
28216;SDS011;15493;56.858;24.340;2023-06-10T01:32:20;3.88;;;0.90;;
28216;SDS011;15493;56.858;24.340;2023-06-10T01:34:38;1.05;;;0.95;;
28216;SDS011;15493;56.858;24.340;2023-06-10T01:37:06;1.02;;;0.90;;
28216;SDS011;15493;56.858;24.340;2023-06-10T01:39:35;0.70;;;0.70;;
28216;SDS011;15493;56.858;24.340;2023-06-10T01:42:02;1.00;;;0.80;;
28216;SDS011;15493;56.858;24.340;2023-06-10T01:44:30;1.33;;;0.95;;
28216;SDS011;15493;56.858;24.340;2023-06-10T01:46:58;8.13;;;1.10;;
28216;SDS011;15493;56.858;24.340;2023-06-10T01:49:26;2.53;;;0.93;;
28216;SDS011;15493;56.858;24.340;2023-06-10T01:51:54;6.28;;;1.25;;
28216;SDS011;15493;56.858;24.340;2023-06-10T01:54:22;1.33;;;0.80;;
28216;SDS011;15493;56.858;24.340;2023-06-10T01:56:49;1.00;;;0.90;;
28216;SDS011;15493;56.858;24.340;2023-06-10T01:59:16;0.90;;;0.80;;
28216;SDS011;15493;56.858;24.340;2023-06-10T02:01:44;0.70;;;0.70;;
28216;SDS011;15493;56.858;24.340;2023-06-10T02:04:11;1.42;;;0.82;;
28216;SDS011;15493;56.858;24.340;2023-06-10T02:06:38;1.13;;;0.90;;
28216;SDS011;15493;56.858;24.340;2023-06-10T02:09:05;3.60;;;1.17;;
28216;SDS011;15493;56.858;24.340;2023-06-10T02:11:32;2.20;;;1.45;;
28216;SDS011;15493;56.858;24.340;2023-06-10T02:14:00;1.98;;;1.10;;
28216;SDS011;15493;56.858;24.340;2023-06-10T02:16:27;4.28;;;1.05;;
28216;SDS011;15493;56.858;24.340;2023-06-10T02:18:54;1.27;;;0.90;;
28216;SDS011;15493;56.858;24.340;2023-06-10T02:21:21;0.80;;;0.80;;
28216;SDS011;15493;56.858;24.340;2023-06-10T02:23:48;2.03;;;0.90;;
28216;SDS011;15493;56.858;24.340;2023-06-10T02:26:17;2.03;;;1.17;;
28216;SDS011;15493;56.858;24.340;2023-06-10T02:28:44;3.97;;;1.23;;
28216;SDS011;15493;56.858;24.340;2023-06-10T02:31:11;9.55;;;1.42;;
28216;SDS011;15493;56.858;24.340;2023-06-10T02:33:38;1.40;;;1.25;;
28216;SDS011;15493;56.858;24.340;2023-06-10T02:36:06;1.08;;;1.02;;
28216;SDS011;15493;56.858;24.340;2023-06-10T02:38:33;3.10;;;0.93;;
28216;SDS011;15493;56.858;24.340;2023-06-10T02:41:01;2.40;;;1.33;;
28216;SDS011;15493;56.858;24.340;2023-06-10T02:43:28;1.52;;;1.00;;
28216;SDS011;15493;56.858;24.340;2023-06-10T02:45:55;2.15;;;1.05;;
28216;SDS011;15493;56.858;24.340;2023-06-10T02:48:25;2.63;;;1.17;;
28216;SDS011;15493;56.858;24.340;2023-06-10T02:50:53;3.40;;;1.40;;
28216;SDS011;15493;56.858;24.340;2023-06-10T02:53:22;1.30;;;1.00;;
28216;SDS011;15493;56.858;24.340;2023-06-10T02:55:49;1.83;;;0.73;;
28216;SDS011;15493;56.858;24.340;2023-06-10T02:58:16;3.67;;;1.20;;
28216;SDS011;15493;56.858;24.340;2023-06-10T03:00:43;1.35;;;1.20;;
28216;SDS011;15493;56.858;24.340;2023-06-10T03:03:11;2.17;;;1.00;;
28216;SDS011;15493;56.858;24.340;2023-06-10T03:05:39;1.02;;;0.85;;
28216;SDS011;15493;56.858;24.340;2023-06-10T03:08:06;1.23;;;1.10;;
28216;SDS011;15493;56.858;24.340;2023-06-10T03:10:33;2.03;;;1.20;;
28216;SDS011;15493;56.858;24.340;2023-06-10T03:13:01;1.30;;;1.20;;
28216;SDS011;15493;56.858;24.340;2023-06-10T03:15:28;1.00;;;0.88;;
28216;SDS011;15493;56.858;24.340;2023-06-10T03:17:59;1.60;;;1.15;;
28216;SDS011;15493;56.858;24.340;2023-06-10T03:20:27;2.20;;;1.05;;
28216;SDS011;15493;56.858;24.340;2023-06-10T03:22:54;1.20;;;1.10;;
28216;SDS011;15493;56.858;24.340;2023-06-10T03:25:21;1.10;;;0.95;;
28216;SDS011;15493;56.858;24.340;2023-06-10T03:27:49;3.15;;;1.17;;
28216;SDS011;15493;56.858;24.340;2023-06-10T03:30:17;1.30;;;1.05;;
28216;SDS011;15493;56.858;24.340;2023-06-10T03:32:44;1.10;;;1.00;;
28216;SDS011;15493;56.858;24.340;2023-06-10T03:35:11;1.95;;;1.42;;
28216;SDS011;15493;56.858;24.340;2023-06-10T03:37:39;2.47;;;1.15;;
28216;SDS011;15493;56.858;24.340;2023-06-10T03:40:07;1.70;;;1.60;;
28216;SDS011;15493;56.858;24.340;2023-06-10T03:42:35;3.03;;;1.20;;
28216;SDS011;15493;56.858;24.340;2023-06-10T03:45:02;1.23;;;1.10;;
28216;SDS011;15493;56.858;24.340;2023-06-10T03:47:37;2.80;;;1.38;;
28216;SDS011;15493;56.858;24.340;2023-06-10T03:50:04;3.20;;;1.75;;
28216;SDS011;15493;56.858;24.340;2023-06-10T03:52:31;1.67;;;1.27;;
28216;SDS011;15493;56.858;24.340;2023-06-10T03:54:59;2.40;;;1.40;;
28216;SDS011;15493;56.858;24.340;2023-06-10T03:57:26;2.03;;;1.30;;
28216;SDS011;15493;56.858;24.340;2023-06-10T03:59:53;2.40;;;2.10;;
28216;SDS011;15493;56.858;24.340;2023-06-10T04:02:21;2.15;;;1.20;;
28216;SDS011;15493;56.858;24.340;2023-06-10T04:04:48;2.67;;;1.60;;
28216;SDS011;15493;56.858;24.340;2023-06-10T04:07:17;1.48;;;1.35;;
28216;SDS011;15493;56.858;24.340;2023-06-10T04:09:46;1.30;;;1.02;;
28216;SDS011;15493;56.858;24.340;2023-06-10T04:12:13;1.55;;;1.00;;
28216;SDS011;15493;56.858;24.340;2023-06-10T04:14:41;1.20;;;1.10;;
28216;SDS011;15493;56.858;24.340;2023-06-10T04:17:08;1.30;;;1.10;;
28216;SDS011;15493;56.858;24.340;2023-06-10T04:19:35;2.80;;;1.35;;
28216;SDS011;15493;56.858;24.340;2023-06-10T04:22:03;2.05;;;1.55;;
28216;SDS011;15493;56.858;24.340;2023-06-10T04:24:31;3.35;;;1.30;;
28216;SDS011;15493;56.858;24.340;2023-06-10T04:26:58;2.40;;;1.48;;
28216;SDS011;15493;56.858;24.340;2023-06-10T04:29:26;1.60;;;1.13;;
28216;SDS011;15493;56.858;24.340;2023-06-10T04:31:54;4.28;;;1.33;;
28216;SDS011;15493;56.858;24.340;2023-06-10T04:34:21;4.95;;;0.93;;
28216;SDS011;15493;56.858;24.340;2023-06-10T04:36:48;1.30;;;1.20;;
28216;SDS011;15493;56.858;24.340;2023-06-10T04:39:17;1.45;;;1.20;;
28216;SDS011;15493;56.858;24.340;2023-06-10T04:41:44;6.97;;;1.40;;
28216;SDS011;15493;56.858;24.340;2023-06-10T04:44:15;1.48;;;1.00;;
28216;SDS011;15493;56.858;24.340;2023-06-10T04:46:42;2.22;;;1.23;;
28216;SDS011;15493;56.858;24.340;2023-06-10T04:49:09;2.88;;;1.33;;
28216;SDS011;15493;56.858;24.340;2023-06-10T04:51:36;1.98;;;1.20;;
28216;SDS011;15493;56.858;24.340;2023-06-10T04:54:04;1.40;;;0.80;;
28216;SDS011;15493;56.858;24.340;2023-06-10T04:56:31;1.00;;;0.90;;
28216;SDS011;15493;56.858;24.340;2023-06-10T04:58:59;2.20;;;1.10;;
28216;SDS011;15493;56.858;24.340;2023-06-10T05:01:26;1.23;;;1.13;;
28216;SDS011;15493;56.858;24.340;2023-06-10T05:03:54;2.28;;;1.27;;
28216;SDS011;15493;56.858;24.340;2023-06-10T05:06:21;6.25;;;2.45;;
28216;SDS011;15493;56.858;24.340;2023-06-10T05:08:48;3.90;;;1.95;;
28216;SDS011;15493;56.858;24.340;2023-06-10T05:11:15;4.32;;;1.30;;
28216;SDS011;15493;56.858;24.340;2023-06-10T05:13:43;3.75;;;1.10;;
28216;SDS011;15493;56.858;24.340;2023-06-10T05:16:10;4.32;;;1.40;;
28216;SDS011;15493;56.858;24.340;2023-06-10T05:18:38;2.90;;;0.90;;
28216;SDS011;15493;56.858;24.340;2023-06-10T05:21:05;2.13;;;1.10;;
28216;SDS011;15493;56.858;24.340;2023-06-10T05:23:32;2.53;;;1.08;;
28216;SDS011;15493;56.858;24.340;2023-06-10T05:25:59;1.98;;;1.10;;
28216;SDS011;15493;56.858;24.340;2023-06-10T05:28:27;3.25;;;1.10;;
28216;SDS011;15493;56.858;24.340;2023-06-10T05:30:54;2.88;;;1.17;;
28216;SDS011;15493;56.858;24.340;2023-06-10T05:33:21;6.20;;;1.20;;
28216;SDS011;15493;56.858;24.340;2023-06-10T05:35:48;1.17;;;1.02;;
28216;SDS011;15493;56.858;24.340;2023-06-10T05:38:16;2.40;;;1.25;;
28216;SDS011;15493;56.858;24.340;2023-06-10T05:40:43;4.70;;;1.00;;
28216;SDS011;15493;56.858;24.340;2023-06-10T05:43:10;1.27;;;1.08;;
28216;SDS011;15493;56.858;24.340;2023-06-10T05:45:37;1.00;;;0.90;;
28216;SDS011;15493;56.858;24.340;2023-06-10T05:48:06;1.58;;;1.48;;
28216;SDS011;15493;56.858;24.340;2023-06-10T05:50:34;2.92;;;1.10;;
28216;SDS011;15493;56.858;24.340;2023-06-10T05:55:33;1.38;;;1.27;;
28216;SDS011;15493;56.858;24.340;2023-06-10T05:58:00;4.65;;;1.20;;
28216;SDS011;15493;56.858;24.340;2023-06-10T06:00:28;1.02;;;0.93;;
28216;SDS011;15493;56.858;24.340;2023-06-10T06:02:55;2.85;;;0.93;;
28216;SDS011;15493;56.858;24.340;2023-06-10T06:05:23;3.40;;;0.80;;
28216;SDS011;15493;56.858;24.340;2023-06-10T06:07:51;19.77;;;2.67;;
28216;SDS011;15493;56.858;24.340;2023-06-10T06:10:18;1.83;;;0.82;;
28216;SDS011;15493;56.858;24.340;2023-06-10T06:12:45;3.92;;;1.45;;
28216;SDS011;15493;56.858;24.340;2023-06-10T06:15:13;1.60;;;1.20;;
28216;SDS011;15493;56.858;24.340;2023-06-10T06:17:40;1.98;;;1.10;;
28216;SDS011;15493;56.858;24.340;2023-06-10T06:20:07;3.22;;;0.95;;
28216;SDS011;15493;56.858;24.340;2023-06-10T06:22:34;2.92;;;1.00;;
28216;SDS011;15493;56.858;24.340;2023-06-10T06:25:02;1.13;;;0.90;;
28216;SDS011;15493;56.858;24.340;2023-06-10T06:27:29;3.00;;;1.05;;
28216;SDS011;15493;56.858;24.340;2023-06-10T06:29:56;1.23;;;0.70;;
28216;SDS011;15493;56.858;24.340;2023-06-10T06:32:24;1.70;;;1.00;;
28216;SDS011;15493;56.858;24.340;2023-06-10T06:34:54;1.38;;;1.13;;
28216;SDS011;15493;56.858;24.340;2023-06-10T06:37:21;3.50;;;1.10;;
28216;SDS011;15493;56.858;24.340;2023-06-10T06:39:53;2.55;;;1.05;;
28216;SDS011;15493;56.858;24.340;2023-06-10T06:42:20;1.08;;;0.98;;
28216;SDS011;15493;56.858;24.340;2023-06-10T06:44:48;1.98;;;0.90;;
28216;SDS011;15493;56.858;24.340;2023-06-10T06:47:15;1.40;;;0.90;;
28216;SDS011;15493;56.858;24.340;2023-06-10T06:49:46;0.77;;;0.73;;
28216;SDS011;15493;56.858;24.340;2023-06-10T06:52:14;2.58;;;0.98;;
28216;SDS011;15493;56.858;24.340;2023-06-10T06:54:41;11.10;;;0.95;;
28216;SDS011;15493;56.858;24.340;2023-06-10T06:57:08;0.70;;;0.70;;
28216;SDS011;15493;56.858;24.340;2023-06-10T06:59:36;3.03;;;1.20;;
28216;SDS011;15493;56.858;24.340;2023-06-10T07:02:03;2.88;;;1.20;;
28216;SDS011;15493;56.858;24.340;2023-06-10T07:04:31;3.45;;;1.10;;
28216;SDS011;15493;56.858;24.340;2023-06-10T07:06:58;0.70;;;0.65;;
28216;SDS011;15493;56.858;24.340;2023-06-10T07:09:25;0.73;;;0.73;;
28216;SDS011;15493;56.858;24.340;2023-06-10T07:11:52;1.20;;;0.90;;
28216;SDS011;15493;56.858;24.340;2023-06-10T07:14:20;0.73;;;0.73;;
28216;SDS011;15493;56.858;24.340;2023-06-10T07:16:47;2.45;;;1.23;;
28216;SDS011;15493;56.858;24.340;2023-06-10T07:19:15;1.33;;;1.00;;
28216;SDS011;15493;56.858;24.340;2023-06-10T07:21:42;6.28;;;1.05;;
28216;SDS011;15493;56.858;24.340;2023-06-10T07:24:09;0.75;;;0.73;;
28216;SDS011;15493;56.858;24.340;2023-06-10T07:26:37;1.25;;;0.80;;
28216;SDS011;15493;56.858;24.340;2023-06-10T07:29:04;2.03;;;0.73;;
28216;SDS011;15493;56.858;24.340;2023-06-10T07:31:31;1.88;;;0.85;;
28216;SDS011;15493;56.858;24.340;2023-06-10T07:33:58;0.90;;;0.70;;
28216;SDS011;15493;56.858;24.340;2023-06-10T07:36:26;2.65;;;0.68;;
28216;SDS011;15493;56.858;24.340;2023-06-10T07:38:54;3.20;;;0.85;;
28216;SDS011;15493;56.858;24.340;2023-06-10T07:41:25;2.00;;;1.00;;
28216;SDS011;15493;56.858;24.340;2023-06-10T07:43:55;3.50;;;1.20;;
28216;SDS011;15493;56.858;24.340;2023-06-10T07:46:22;4.28;;;1.05;;
28216;SDS011;15493;56.858;24.340;2023-06-10T07:48:50;1.05;;;0.80;;
28216;SDS011;15493;56.858;24.340;2023-06-10T07:51:18;2.22;;;0.77;;
28216;SDS011;15493;56.858;24.340;2023-06-10T07:53:45;0.90;;;0.90;;
28216;SDS011;15493;56.858;24.340;2023-06-10T07:56:12;1.42;;;0.80;;
28216;SDS011;15493;56.858;24.340;2023-06-10T07:58:39;4.28;;;1.20;;
28216;SDS011;15493;56.858;24.340;2023-06-10T08:01:07;2.67;;;1.17;;
28216;SDS011;15493;56.858;24.340;2023-06-10T08:03:35;4.03;;;0.85;;
28216;SDS011;15493;56.858;24.340;2023-06-10T08:06:03;6.68;;;1.08;;
28216;SDS011;15493;56.858;24.340;2023-06-10T08:08:31;3.50;;;1.05;;
28216;SDS011;15493;56.858;24.340;2023-06-10T08:11:00;0.70;;;0.70;;
28216;SDS011;15493;56.858;24.340;2023-06-10T08:13:27;2.53;;;0.70;;
28216;SDS011;15493;56.858;24.340;2023-06-10T08:15:55;1.42;;;1.25;;
28216;SDS011;15493;56.858;24.340;2023-06-10T08:18:22;2.92;;;0.75;;
28216;SDS011;15493;56.858;24.340;2023-06-10T08:20:49;2.78;;;0.90;;
28216;SDS011;15493;56.858;24.340;2023-06-10T08:23:16;3.55;;;1.10;;
28216;SDS011;15493;56.858;24.340;2023-06-10T08:25:46;5.90;;;1.02;;
28216;SDS011;15493;56.858;24.340;2023-06-10T08:28:13;1.33;;;1.20;;
28216;SDS011;15493;56.858;24.340;2023-06-10T08:30:40;2.05;;;0.98;;
28216;SDS011;15493;56.858;24.340;2023-06-10T08:33:07;1.60;;;1.05;;
28216;SDS011;15493;56.858;24.340;2023-06-10T08:35:34;1.60;;;1.02;;
28216;SDS011;15493;56.858;24.340;2023-06-10T08:38:02;2.85;;;0.73;;
28216;SDS011;15493;56.858;24.340;2023-06-10T08:40:29;3.67;;;0.90;;
28216;SDS011;15493;56.858;24.340;2023-06-10T08:43:07;2.28;;;0.73;;
28216;SDS011;15493;56.858;24.340;2023-06-10T08:45:35;4.22;;;1.13;;
28216;SDS011;15493;56.858;24.340;2023-06-10T17:01:41;3.60;;;0.90;;
28216;SDS011;15493;56.858;24.340;2023-06-10T18:15:17;1.60;;;0.80;;
28216;SDS011;15493;56.858;24.340;2023-06-10T18:17:45;5.10;;;1.00;;
28216;SDS011;15493;56.858;24.340;2023-06-10T18:20:12;1.77;;;1.20;;
28216;SDS011;15493;56.858;24.340;2023-06-10T18:22:39;2.05;;;0.90;;
28216;SDS011;15493;56.858;24.340;2023-06-10T18:25:06;4.15;;;0.98;;
28216;SDS011;15493;56.858;24.340;2023-06-10T18:27:34;2.50;;;0.63;;
28216;SDS011;15493;56.858;24.340;2023-06-10T18:30:01;5.15;;;0.80;;
28216;SDS011;15493;56.858;24.340;2023-06-10T18:32:29;4.75;;;0.98;;
28216;SDS011;15493;56.858;24.340;2023-06-10T18:39:51;3.50;;;1.20;;
28216;SDS011;15493;56.858;24.340;2023-06-10T18:42:18;3.30;;;1.65;;
28216;SDS011;15493;56.858;24.340;2023-06-10T18:44:45;6.85;;;1.73;;
28216;SDS011;15493;56.858;24.340;2023-06-10T18:47:13;11.18;;;3.83;;
28216;SDS011;15493;56.858;24.340;2023-06-10T18:49:40;10.98;;;3.45;;
28216;SDS011;15493;56.858;24.340;2023-06-10T18:52:07;7.70;;;3.15;;
28216;SDS011;15493;56.858;24.340;2023-06-10T18:54:34;7.33;;;3.93;;
28216;SDS011;15493;56.858;24.340;2023-06-10T18:57:02;6.50;;;2.25;;
28216;SDS011;15493;56.858;24.340;2023-06-10T18:59:29;4.85;;;2.40;;
28216;SDS011;15493;56.858;24.340;2023-06-10T19:01:56;8.60;;;3.67;;
28216;SDS011;15493;56.858;24.340;2023-06-10T19:04:24;6.47;;;3.03;;
28216;SDS011;15493;56.858;24.340;2023-06-10T19:06:51;7.25;;;2.97;;
28216;SDS011;15493;56.858;24.340;2023-06-10T20:42:33;5.35;;;2.72;;
28216;SDS011;15493;56.858;24.340;2023-06-10T20:45:00;3.42;;;2.78;;
28216;SDS011;15493;56.858;24.340;2023-06-10T20:47:28;7.93;;;2.80;;
28216;SDS011;15493;56.858;24.340;2023-06-10T20:49:56;4.38;;;2.60;;
28216;SDS011;15493;56.858;24.340;2023-06-10T20:52:23;6.63;;;2.67;;
28216;SDS011;15493;56.858;24.340;2023-06-10T20:54:50;8.13;;;2.47;;
28216;SDS011;15493;56.858;24.340;2023-06-10T20:57:18;4.28;;;2.50;;
28216;SDS011;15493;56.858;24.340;2023-06-10T20:59:45;9.52;;;2.60;;
28216;SDS011;15493;56.858;24.340;2023-06-10T21:02:12;2.63;;;1.70;;
28216;SDS011;15493;56.858;24.340;2023-06-10T21:04:39;4.47;;;2.83;;
28216;SDS011;15493;56.858;24.340;2023-06-10T21:07:06;2.92;;;1.80;;
28216;SDS011;15493;56.858;24.340;2023-06-10T21:09:34;13.65;;;2.17;;
28216;SDS011;15493;56.858;24.340;2023-06-10T21:12:01;3.47;;;2.65;;
28216;SDS011;15493;56.858;24.340;2023-06-10T21:14:28;6.00;;;1.60;;
28216;SDS011;15493;56.858;24.340;2023-06-10T21:16:55;5.22;;;1.40;;
28216;SDS011;15493;56.858;24.340;2023-06-10T21:19:22;1.95;;;1.52;;
28216;SDS011;15493;56.858;24.340;2023-06-10T21:21:50;4.00;;;1.70;;
28216;SDS011;15493;56.858;24.340;2023-06-10T21:24:17;3.60;;;1.70;;
28216;SDS011;15493;56.858;24.340;2023-06-10T21:26:44;3.20;;;1.85;;
28216;SDS011;15493;56.858;24.340;2023-06-10T21:29:12;3.83;;;1.77;;
28216;SDS011;15493;56.858;24.340;2023-06-10T21:31:39;4.72;;;1.67;;
28216;SDS011;15493;56.858;24.340;2023-06-10T21:34:06;2.40;;;1.60;;
28216;SDS011;15493;56.858;24.340;2023-06-10T21:36:33;3.92;;;2.55;;
28216;SDS011;15493;56.858;24.340;2023-06-10T21:39:00;3.75;;;1.73;;
28216;SDS011;15493;56.858;24.340;2023-06-10T21:41:28;2.30;;;1.40;;
28216;SDS011;15493;56.858;24.340;2023-06-10T21:43:55;4.32;;;1.52;;
28216;SDS011;15493;56.858;24.340;2023-06-10T21:46:23;3.17;;;1.67;;
28216;SDS011;15493;56.858;24.340;2023-06-10T21:48:52;13.13;;;4.07;;
28216;SDS011;15493;56.858;24.340;2023-06-10T21:51:19;9.20;;;3.15;;
28216;SDS011;15493;56.858;24.340;2023-06-10T21:53:47;5.80;;;1.45;;
28216;SDS011;15493;56.858;24.340;2023-06-10T21:56:14;6.53;;;1.88;;
28216;SDS011;15493;56.858;24.340;2023-06-10T21:58:41;5.60;;;1.42;;
28216;SDS011;15493;56.858;24.340;2023-06-10T22:01:14;2.75;;;1.50;;
28216;SDS011;15493;56.858;24.340;2023-06-10T22:03:41;5.50;;;1.50;;
28216;SDS011;15493;56.858;24.340;2023-06-10T22:06:08;2.53;;;1.38;;
28216;SDS011;15493;56.858;24.340;2023-06-10T22:08:36;2.55;;;1.30;;
28216;SDS011;15493;56.858;24.340;2023-06-10T22:11:03;11.13;;;1.60;;
28216;SDS011;15493;56.858;24.340;2023-06-10T22:13:30;3.28;;;1.27;;
28216;SDS011;15493;56.858;24.340;2023-06-10T22:15:58;4.88;;;1.25;;
28216;SDS011;15493;56.858;24.340;2023-06-10T22:18:25;4.95;;;1.30;;
28216;SDS011;15493;56.858;24.340;2023-06-10T22:20:52;3.95;;;1.15;;
28216;SDS011;15493;56.858;24.340;2023-06-10T22:23:19;6.15;;;1.35;;
28216;SDS011;15493;56.858;24.340;2023-06-10T22:25:47;7.03;;;1.88;;
28216;SDS011;15493;56.858;24.340;2023-06-10T22:28:14;10.82;;;2.30;;
28216;SDS011;15493;56.858;24.340;2023-06-10T22:30:41;6.97;;;1.35;;
28216;SDS011;15493;56.858;24.340;2023-06-10T22:33:09;8.18;;;1.75;;
28216;SDS011;15493;56.858;24.340;2023-06-10T22:35:36;4.22;;;1.67;;
28216;SDS011;15493;56.858;24.340;2023-06-10T22:38:03;15.35;;;2.30;;
28216;SDS011;15493;56.858;24.340;2023-06-10T22:40:30;6.68;;;1.60;;
28216;SDS011;15493;56.858;24.340;2023-06-10T22:42:57;15.43;;;2.17;;
28216;SDS011;15493;56.858;24.340;2023-06-10T22:45:25;2.28;;;1.40;;
28216;SDS011;15493;56.858;24.340;2023-06-10T22:47:53;10.52;;;2.95;;
28216;SDS011;15493;56.858;24.340;2023-06-10T22:50:20;3.60;;;2.17;;
28216;SDS011;15493;56.858;24.340;2023-06-10T22:52:48;5.57;;;2.40;;
28216;SDS011;15493;56.858;24.340;2023-06-10T22:55:16;9.57;;;2.25;;
28216;SDS011;15493;56.858;24.340;2023-06-10T22:57:44;5.35;;;2.10;;
28216;SDS011;15493;56.858;24.340;2023-06-10T23:00:13;7.43;;;2.75;;
28216;SDS011;15493;56.858;24.340;2023-06-10T23:02:41;23.88;;;3.47;;
28216;SDS011;15493;56.858;24.340;2023-06-10T23:05:08;5.82;;;2.15;;
28216;SDS011;15493;56.858;24.340;2023-06-10T23:07:37;13.45;;;2.17;;
28216;SDS011;15493;56.858;24.340;2023-06-10T23:10:05;4.75;;;2.35;;
28216;SDS011;15493;56.858;24.340;2023-06-10T23:12:32;6.03;;;1.90;;
28216;SDS011;15493;56.858;24.340;2023-06-10T23:14:59;9.60;;;3.47;;
28216;SDS011;15493;56.858;24.340;2023-06-10T23:17:27;5.03;;;2.20;;
28216;SDS011;15493;56.858;24.340;2023-06-10T23:19:55;5.65;;;2.10;;
28216;SDS011;15493;56.858;24.340;2023-06-10T23:22:23;5.97;;;1.83;;
28216;SDS011;15493;56.858;24.340;2023-06-10T23:24:51;5.20;;;2.70;;
28216;SDS011;15493;56.858;24.340;2023-06-10T23:27:22;4.85;;;2.70;;
28216;SDS011;15493;56.858;24.340;2023-06-10T23:29:49;13.00;;;3.10;;
28216;SDS011;15493;56.858;24.340;2023-06-10T23:32:25;9.50;;;3.60;;
28216;SDS011;15493;56.858;24.340;2023-06-10T23:34:53;6.53;;;2.90;;
28216;SDS011;15493;56.858;24.340;2023-06-10T23:37:20;11.05;;;3.00;;
28216;SDS011;15493;56.858;24.340;2023-06-10T23:39:47;9.27;;;2.80;;
28216;SDS011;15493;56.858;24.340;2023-06-10T23:42:15;5.05;;;2.50;;
28216;SDS011;15493;56.858;24.340;2023-06-10T23:44:43;7.47;;;2.40;;
28216;SDS011;15493;56.858;24.340;2023-06-10T23:47:10;4.43;;;2.50;;
28216;SDS011;15493;56.858;24.340;2023-06-10T23:49:37;5.63;;;2.90;;
28216;SDS011;15493;56.858;24.340;2023-06-10T23:52:04;8.15;;;3.78;;
28216;SDS011;15493;56.858;24.340;2023-06-10T23:54:32;7.30;;;3.28;;
28216;SDS011;15493;56.858;24.340;2023-06-10T23:56:59;7.80;;;3.10;;
28216;SDS011;15493;56.858;24.340;2023-06-10T23:59:28;6.78;;;2.83;;
